METAR Data
IDs: Format: Raw Decoded Include TAF

Data at: 0151 UTC 16 Jan 2019

KPWG 160056Z AUTO 17006KT 10SM OVC034 09/07 A3026 RMK AO2 SLP266 T00890067
KPWG 152356Z AUTO 16007KT 10SM OVC036 09/06 A3024 RMK AO2 SLP260 T00890061 10100 20089 55008
KPWG 152256Z AUTO 16007KT 10SM OVC038 09/06 A3024 RMK AO2 SLP258 T00940061
KPWG 152156Z AUTO 18008KT 10SM OVC040 09/06 A3026 RMK AO2 SLP263 T00940061
KPWG 152114Z AUTO VRB05KT 10SM FEW024 OVC038 10/06 A3026 RMK AO2
KPWG 152056Z AUTO 17006KT 10SM BKN022 OVC040 10/06 A3027 RMK AO2 SLP268 T01000056 56030
KPWG 151956Z AUTO 19006KT 10SM BKN022 OVC031 09/05 A3028 RMK AO2 SLP271 T00940050
KPWG 151856Z AUTO 17005KT 10SM BKN037 OVC047 09/04 A3030 RMK AO2 SLP279 T00940044
KPWG 151756Z AUTO 17006KT 10SM OVC037 09/04 A3036 RMK AO2 SLP299 T00940044 10094 20056 58001
KPWG 151656Z AUTO 17003KT 9SM OVC043 08/04 A3038 RMK AO2 SLP308 T00830039
KPWG 151556Z AUTO 16006KT 8SM OVC055 07/04 A3038 RMK AO2 SLP303 T00720039
KPWG 151456Z AUTO 14004KT 7SM OVC060 06/04 A3036 RMK AO2 SLP300 T00610039 53006
KPWG 151356Z AUTO 16005KT 7SM OVC055 06/04 A3036 RMK AO2 SLP298 T00560039
KPWG 151256Z AUTO 00000KT 8SM OVC055 06/03 A3034 RMK AO2 SLP291 T00560033
KPWG 151156Z AUTO 17003KT 9SM OVC048 06/03 A3034 RMK AO2 SLP292 T00560033 10056 20050 55002
KPWG 151056Z AUTO 00000KT 9SM OVC050 06/04 A3033 RMK AO2 SLP287 T00560039
KPWG 150956Z AUTO 05004KT 9SM OVC055 06/03 A3034 RMK AO2 SLP291 T00560033
KPWG 150856Z AUTO 09003KT 8SM OVC055 06/03 A3035 RMK AO2 SLP293 T00560033 58009
KPWG 150756Z AUTO 16003KT 8SM OVC055 06/04 A3036 RMK AO2 SLP299 T00560039
KPWG 150656Z AUTO 18004KT 8SM OVC050 06/04 A3036 RMK AO2 SLP299 T00560039
KPWG 150556Z AUTO 18003KT 9SM OVC050 05/03 A3038 RMK AO2 SLP304 T00500033 10050 20022 400720022 58006
KPWG 150456Z AUTO 00000KT 8SM OVC050 04/03 A3039 RMK AO2 SLP308 T00440028
KPWG 150356Z AUTO 00000KT 9SM OVC050 04/03 A3040 RMK AO2 SLP313 T00390028
KPWG 150256Z AUTO 18003KT 9SM CLR 02/02 A3040 RMK AO2 SLP310 T00220017 50005 FZRANO
KPWG 150156Z AUTO 00000KT 10SM CLR 04/02 A3040 RMK AO2 SLP312 T00390017
KPWG 150056Z AUTO 08003KT 10SM CLR 04/02 A3040 RMK AO2 SLP312 T00440017
KPWG 142356Z AUTO 05007KT 10SM CLR 05/02 A3038 RMK AO2 SLP306 T00500017 10072 20039 56007
KPWG 142256Z AUTO 04003KT 10SM OVC060 07/02 A3038 RMK AO2 SLP307 T00670017
KPWG 142156Z AUTO 02004KT 10SM BKN060 06/02 A3039 RMK AO2 SLP308 T00610017
KPWG 142056Z AUTO 31006KT 10SM SCT019 OVC060 06/02 A3040 RMK AO2 SLP313 T00610017 56032
KPWG 142022Z AUTO 00000KT 9SM FEW019 OVC060 06/01 A3041 RMK AO2
KPWG 141956Z AUTO 03004KT 9SM BKN017 OVC060 05/01 A3042 RMK AO2 SLP319 T00500006
KPWG 141911Z AUTO 30004KT 9SM BKN017 OVC065 04/01 A3044 RMK AO2
KPWG 141856Z AUTO 30003KT 9SM SCT017 OVC065 04/01 A3045 RMK AO2 SLP332 T00440006
KPWG 141756Z AUTO VRB05KT 9SM OVC015 04/01 A3050 RMK AO2 SLP346 T00390006 10039 20022 50002
KPWG 141728Z AUTO 36005KT 9SM OVC015 03/00 A3051 RMK AO2
KPWG 141656Z AUTO 36006KT 7SM BKN013 OVC060 03/01 A3052 RMK AO2 SLP351 T00330006
KPWG 141556Z AUTO 36006KT 7SM OVC013 03/00 A3052 RMK AO2 SLP351 T00280000
KPWG 141531Z AUTO 36006KT 7SM OVC013 03/00 A3051 RMK AO2
KPWG 141456Z AUTO 01006KT 7SM OVC015 02/00 A3049 RMK AO2 SLP342 T00220000 53007 FZRANO
KPWG 141356Z AUTO 36006KT 8SM OVC015 02/00 A3048 RMK AO2 SLP337 T00220000 FZRANO